createdAt,value
2019-03-11T00:01:46.904Z,2.05
2019-03-11T00:04:14.783Z,2.01
2019-03-11T00:06:41.979Z,2.02
2019-03-11T00:09:08.659Z,2.01
2019-03-11T00:11:35.363Z,1.92
2019-03-11T00:14:02.197Z,1.97
2019-03-11T00:16:29.015Z,2.00
2019-03-11T00:18:55.788Z,2.05
2019-03-11T00:21:22.361Z,2.06
2019-03-11T00:23:49.111Z,2.01
2019-03-11T00:26:15.781Z,2.09
2019-03-11T00:28:42.525Z,1.98
2019-03-11T00:31:09.195Z,2.05
2019-03-11T00:33:35.842Z,2.08
2019-03-11T00:36:02.634Z,2.02
2019-03-11T00:38:29.363Z,1.99
2019-03-11T00:40:56.172Z,2.06
2019-03-11T00:43:22.909Z,2.05
2019-03-11T00:45:49.605Z,2.05
2019-03-11T00:48:16.398Z,1.99
2019-03-11T00:50:43.072Z,1.99
2019-03-11T00:53:09.932Z,1.90
2019-03-11T00:55:36.618Z,1.91
2019-03-11T00:58:03.449Z,1.92
2019-03-11T01:00:32.339Z,1.91
2019-03-11T01:02:59.174Z,1.92
2019-03-11T01:05:25.843Z,1.76
2019-03-11T01:07:52.539Z,1.88
2019-03-11T01:10:19.315Z,1.84
2019-03-11T01:12:46.012Z,1.85
2019-03-11T01:15:12.794Z,1.82
2019-03-11T01:17:39.570Z,1.80
2019-03-11T01:20:06.413Z,1.86
2019-03-11T01:22:33.100Z,1.88
2019-03-11T01:24:59.816Z,1.85
2019-03-11T01:27:26.491Z,1.88
2019-03-11T01:29:53.187Z,1.94
2019-03-11T01:32:19.864Z,2.02
2019-03-11T01:34:46.507Z,1.97
2019-03-11T01:37:13.081Z,2.08
2019-03-11T01:39:39.700Z,2.12
2019-03-11T01:42:06.377Z,2.18
2019-03-11T01:44:33.221Z,2.11
2019-03-11T01:46:59.899Z,2.06
2019-03-11T01:49:26.604Z,2.13
2019-03-11T01:51:53.290Z,2.27
2019-03-11T01:54:19.898Z,2.40
2019-03-11T01:56:46.571Z,2.47
2019-03-11T01:59:13.376Z,2.42
2019-03-11T02:01:40.048Z,2.44
2019-03-11T02:04:06.743Z,2.55
2019-03-11T02:06:33.415Z,2.58
2019-03-11T02:09:00.025Z,2.60
2019-03-11T02:11:26.818Z,2.57
2019-03-11T02:13:53.628Z,2.67
2019-03-11T02:16:20.312Z,2.70
2019-03-11T02:18:47.023Z,2.61
2019-03-11T02:21:13.701Z,2.57
2019-03-11T02:23:40.515Z,2.53
2019-03-11T02:26:07.513Z,2.51
2019-03-11T02:28:34.378Z,2.53
2019-03-11T02:31:01.498Z,2.38
2019-03-11T02:33:28.626Z,2.30
2019-03-11T02:35:55.744Z,2.32
2019-03-11T02:38:22.508Z,2.11
2019-03-11T02:40:49.376Z,1.88
2019-03-11T02:43:16.495Z,1.87
2019-03-11T02:45:43.539Z,1.84
2019-03-11T02:48:11.033Z,1.82
2019-03-11T02:50:38.919Z,1.82
2019-03-11T02:53:06.098Z,1.76
2019-03-11T02:55:33.182Z,1.80
2019-03-11T02:58:00.434Z,1.76
2019-03-11T03:00:27.514Z,1.82
2019-03-11T03:03:02.083Z,1.75
2019-03-11T03:05:41.346Z,1.77
2019-03-11T03:08:08.346Z,1.79
2019-03-11T03:10:35.043Z,1.82
2019-03-11T03:13:01.860Z,1.80
2019-03-11T03:15:28.868Z,1.88
2019-03-11T03:17:55.665Z,1.90
2019-03-11T03:20:22.376Z,1.91
2019-03-11T03:22:49.070Z,1.97
2019-03-11T03:25:15.868Z,1.90
2019-03-11T03:27:42.634Z,1.86
2019-03-11T03:30:12.006Z,1.83
2019-03-11T03:32:38.606Z,1.89
2019-03-11T03:35:05.519Z,1.91
2019-03-11T03:37:32.298Z,1.94
2019-03-11T03:39:58.892Z,1.95
2019-03-11T03:42:25.810Z,1.96
2019-03-11T03:45:20.820Z,1.92
2019-03-11T03:47:47.648Z,1.94
2019-03-11T03:50:14.434Z,1.98
2019-03-11T03:52:41.040Z,1.93
2019-03-11T03:55:07.837Z,2.01
2019-03-11T03:57:34.657Z,2.02
2019-03-11T04:00:01.446Z,2.00
2019-03-11T04:02:28.248Z,2.01
2019-03-11T04:04:55.030Z,2.00
2019-03-11T04:07:22.109Z,2.01
2019-03-11T04:09:50.091Z,1.94
2019-03-11T04:12:16.800Z,1.93
2019-03-11T04:14:43.505Z,1.97
2019-03-11T04:17:10.332Z,1.93
2019-03-11T04:19:37.112Z,1.95
2019-03-11T04:22:03.935Z,1.94
2019-03-11T04:24:30.741Z,1.95
2019-03-11T04:26:59.360Z,1.89
2019-03-11T04:29:26.143Z,1.87
2019-03-11T04:31:53.342Z,1.88
2019-03-11T04:34:20.133Z,1.89
2019-03-11T04:36:46.937Z,1.89
2019-03-11T04:39:13.907Z,1.89
2019-03-11T04:41:40.740Z,1.84
2019-03-11T04:44:07.821Z,1.85
2019-03-11T04:46:34.623Z,1.84
2019-03-11T04:49:01.526Z,1.90
2019-03-11T04:51:28.330Z,1.95
2019-03-11T04:53:55.117Z,1.91
2019-03-11T04:56:22.332Z,1.91
2019-03-11T04:58:49.116Z,1.93
2019-03-11T05:01:15.915Z,1.95
2019-03-11T05:03:42.743Z,2.05
2019-03-11T05:06:09.743Z,2.09
2019-03-11T05:08:36.557Z,2.08
2019-03-11T05:11:03.345Z,2.07
2019-03-11T05:13:30.475Z,2.11
2019-03-11T05:15:57.186Z,2.14
2019-03-11T05:18:23.893Z,2.14
2019-03-11T05:20:50.573Z,2.32
2019-03-11T05:23:17.298Z,2.17
2019-03-11T05:25:43.989Z,2.18
2019-03-11T05:28:10.795Z,2.15
2019-03-11T05:30:37.494Z,2.11
2019-03-11T05:33:04.315Z,2.10
2019-03-11T05:35:42.390Z,2.06
2019-03-11T05:38:08.993Z,2.15
2019-03-11T05:40:36.114Z,2.22
2019-03-11T05:43:03.037Z,2.24
2019-03-11T05:45:29.720Z,2.26
2019-03-11T05:47:56.453Z,2.18
2019-03-11T05:50:23.152Z,2.22
2019-03-11T05:52:53.728Z,2.21
2019-03-11T05:55:20.691Z,2.25
2019-03-11T05:57:47.723Z,2.19
2019-03-11T06:00:17.789Z,2.27
2019-03-11T06:02:47.324Z,2.26
2019-03-11T06:05:14.099Z,2.22
2019-03-11T06:07:42.565Z,2.27
2019-03-11T06:10:10.089Z,2.31
2019-03-11T06:12:36.885Z,2.37
2019-03-11T06:15:04.898Z,2.26
2019-03-11T06:17:31.712Z,2.29
2019-03-11T06:20:12.406Z,2.32
2019-03-11T06:22:38.780Z,2.33
2019-03-11T06:25:05.620Z,2.11
2019-03-11T06:27:32.309Z,2.42
2019-03-11T06:29:59.013Z,2.41
2019-03-11T06:32:25.800Z,2.43
2019-03-11T06:34:52.508Z,2.48
2019-03-11T06:37:19.309Z,2.44
2019-03-11T06:39:45.929Z,2.15
2019-03-11T06:42:12.634Z,2.45
2019-03-11T06:44:39.352Z,2.56
2019-03-11T06:47:05.962Z,2.57
2019-03-11T06:49:32.632Z,2.68
2019-03-11T06:51:59.229Z,2.74
2019-03-11T06:54:25.940Z,2.56
2019-03-11T06:56:52.528Z,2.43
2019-03-11T06:59:19.140Z,2.41
2019-03-11T07:01:46.037Z,2.37
2019-03-11T07:04:12.840Z,2.35
2019-03-11T07:06:39.635Z,2.30
2019-03-11T07:09:07.749Z,2.33
2019-03-11T07:11:34.876Z,2.28
2019-03-11T07:14:01.608Z,1.92
2019-03-11T07:16:28.317Z,1.72
2019-03-11T07:18:55.016Z,1.60
2019-03-11T07:21:21.600Z,1.48
2019-03-11T07:23:48.271Z,1.44
2019-03-11T07:26:15.079Z,1.49
2019-03-11T07:28:41.765Z,1.60
2019-03-11T07:31:08.473Z,1.70
2019-03-11T07:33:35.056Z,1.76
2019-03-11T07:36:01.861Z,1.79
2019-03-11T07:38:28.569Z,1.89
2019-03-11T07:40:55.407Z,1.96
2019-03-11T07:43:22.111Z,2.04
2019-03-11T07:45:48.791Z,2.25
2019-03-11T07:48:15.399Z,2.30
2019-03-11T07:50:42.217Z,2.41
2019-03-11T07:53:09.213Z,2.62
2019-03-11T07:55:35.929Z,2.66
2019-03-11T07:58:02.726Z,2.56
2019-03-11T08:00:29.928Z,2.67
2019-03-11T08:02:56.554Z,2.78
2019-03-11T08:05:24.780Z,2.71
2019-03-11T08:07:51.641Z,2.74
2019-03-11T08:10:18.342Z,2.79
2019-03-11T08:12:45.115Z,2.68
2019-03-11T08:15:11.996Z,2.67
2019-03-11T08:17:39.191Z,2.68
2019-03-11T08:20:07.556Z,2.91
2019-03-11T08:22:34.379Z,3.00
2019-03-11T08:25:01.072Z,2.96
2019-03-11T08:27:27.786Z,2.97
2019-03-11T08:29:54.608Z,2.90
2019-03-11T08:32:21.297Z,2.86
2019-03-11T08:34:48.101Z,2.89
2019-03-11T08:37:14.815Z,2.94
2019-03-11T08:39:41.501Z,3.04
2019-03-11T08:42:08.479Z,3.12
2019-03-11T08:44:35.179Z,3.06
2019-03-11T08:47:01.987Z,2.89
2019-03-11T08:49:28.667Z,2.82
2019-03-11T08:51:55.382Z,2.91
2019-03-11T08:54:21.984Z,3.22
2019-03-11T08:56:48.688Z,3.36
2019-03-11T08:59:15.719Z,3.90
2019-03-11T09:01:42.533Z,3.91
2019-03-11T09:04:09.327Z,3.71
2019-03-11T09:06:36.023Z,3.49
2019-03-11T09:09:05.554Z,3.24
2019-03-11T09:11:32.303Z,2.99
2019-03-11T09:14:00.211Z,2.65
2019-03-11T09:16:27.028Z,2.43
2019-03-11T09:18:53.604Z,2.44
2019-03-11T09:21:20.514Z,2.08
2019-03-11T09:23:47.325Z,2.04
2019-03-11T09:26:14.139Z,2.08
2019-03-11T09:28:41.324Z,2.09
2019-03-11T09:31:08.429Z,2.02
2019-03-11T09:33:35.116Z,1.88
2019-03-11T09:36:01.827Z,1.93
2019-03-11T09:38:28.436Z,0.94
2019-03-11T09:40:55.254Z,1.92
2019-03-11T09:43:21.967Z,2.08
2019-03-11T09:45:48.775Z,2.08
2019-03-11T09:48:15.458Z,2.25
2019-03-11T09:50:42.242Z,2.22
2019-03-11T09:53:09.051Z,2.22
2019-03-11T09:55:36.251Z,2.29
2019-03-11T09:58:03.062Z,2.39
2019-03-11T10:00:51.255Z,2.58
2019-03-11T10:03:17.998Z,2.76
2019-03-11T10:05:44.781Z,2.76
2019-03-11T10:08:11.842Z,3.06
2019-03-11T10:10:38.551Z,3.05
2019-03-11T10:13:05.349Z,2.92
2019-03-11T10:15:32.125Z,2.93
2019-03-11T10:17:58.942Z,2.78
2019-03-11T10:20:25.728Z,2.61
2019-03-11T10:22:52.329Z,2.72
2019-03-11T10:25:19.106Z,2.98
2019-03-11T10:27:45.969Z,2.95
2019-03-11T10:30:14.066Z,2.83
2019-03-11T10:32:41.196Z,2.61
2019-03-11T10:35:30.202Z,2.60
2019-03-11T10:37:38.428Z,2.53
2019-03-11T10:40:07.487Z,2.55
2019-03-11T10:42:34.275Z,2.82
2019-03-11T10:45:00.982Z,2.85
2019-03-11T10:47:27.671Z,2.95
2019-03-11T10:49:54.435Z,2.88
2019-03-11T10:52:21.128Z,3.54
2019-03-11T10:54:47.825Z,3.28
2019-03-11T10:57:14.492Z,3.11
2019-03-11T10:59:41.100Z,3.75
2019-03-11T11:02:29.495Z,3.66
2019-03-11T11:04:56.088Z,3.38
2019-03-11T11:07:22.912Z,3.92
2019-03-11T11:09:49.605Z,4.34
2019-03-11T11:12:16.395Z,4.26
2019-03-11T11:14:43.193Z,4.05
2019-03-11T11:17:09.898Z,3.90
2019-03-11T11:19:36.882Z,3.53
2019-03-11T11:22:03.761Z,3.55
2019-03-11T11:24:30.584Z,3.75
2019-03-11T11:26:57.369Z,3.95
2019-03-11T11:29:24.066Z,3.88
2019-03-11T11:31:50.881Z,3.66
2019-03-11T11:34:17.675Z,3.90
2019-03-11T11:36:44.348Z,4.16
2019-03-11T11:39:11.144Z,3.87
2019-03-11T11:41:37.834Z,3.89
2019-03-11T11:44:04.619Z,4.07
2019-03-11T11:46:31.194Z,4.04
2019-03-11T11:48:57.882Z,4.35
2019-03-11T11:51:24.664Z,4.39
2019-03-11T11:53:51.364Z,4.01
2019-03-11T11:56:18.064Z,4.26
2019-03-11T11:58:44.757Z,4.08
2019-03-11T12:01:11.344Z,4.01
2019-03-11T12:03:38.132Z,3.83
2019-03-11T12:06:04.909Z,3.88
2019-03-11T12:08:32.735Z,3.89
2019-03-11T12:10:59.376Z,4.21
2019-03-11T12:13:26.167Z,4.04
2019-03-11T12:15:52.935Z,4.03
2019-03-11T12:18:19.610Z,4.03
2019-03-11T12:20:46.401Z,4.12
2019-03-11T12:23:13.189Z,4.17
2019-03-11T12:25:39.899Z,3.85
2019-03-11T12:28:06.668Z,3.68
2019-03-11T12:30:33.512Z,3.61
2019-03-11T12:33:00.298Z,3.44
2019-03-11T12:35:27.297Z,3.41
2019-03-11T12:37:54.567Z,3.48
2019-03-11T12:40:21.667Z,3.29
2019-03-11T12:42:48.550Z,3.20
2019-03-11T12:45:15.365Z,3.10
2019-03-11T12:47:42.215Z,2.99
2019-03-11T12:50:14.882Z,2.96
2019-03-11T12:52:41.813Z,2.89
2019-03-11T12:55:08.571Z,2.72
2019-03-11T12:57:35.351Z,2.91
2019-03-11T13:00:02.308Z,2.89
2019-03-11T13:02:28.996Z,2.67
2019-03-11T13:04:55.718Z,2.81
2019-03-11T13:07:22.392Z,2.50
2019-03-11T13:09:49.095Z,2.58
2019-03-11T13:12:15.871Z,2.68
2019-03-11T13:14:42.570Z,2.74
2019-03-11T13:17:09.385Z,2.90
2019-03-11T13:19:36.169Z,2.84
2019-03-11T13:22:02.952Z,3.03
2019-03-11T13:24:29.640Z,3.21
2019-03-11T13:26:56.335Z,3.54
2019-03-11T13:29:23.012Z,3.60
2019-03-11T13:31:49.609Z,3.86
2019-03-11T13:34:16.276Z,3.88
2019-03-11T13:36:42.979Z,3.72
2019-03-11T13:39:10.294Z,3.77
2019-03-11T13:41:37.007Z,3.76
2019-03-11T13:44:03.786Z,3.73
2019-03-11T13:46:30.580Z,3.92
2019-03-11T13:48:57.248Z,3.99
2019-03-11T13:51:23.953Z,4.40
2019-03-11T13:53:51.019Z,4.88
2019-03-11T13:56:17.937Z,4.56
2019-03-11T13:58:44.612Z,4.84
2019-03-11T14:01:11.405Z,5.41
2019-03-11T14:03:39.058Z,5.69
2019-03-11T14:06:05.888Z,5.37
2019-03-11T14:08:32.459Z,6.84
2019-03-11T14:10:59.272Z,6.84
2019-03-11T14:13:25.945Z,7.25
2019-03-11T14:15:52.745Z,6.04
2019-03-11T14:18:19.531Z,5.70
2019-03-11T14:20:46.227Z,5.63
2019-03-11T14:23:13.050Z,5.35
2019-03-11T14:25:39.735Z,5.56
2019-03-11T14:28:06.336Z,5.05
2019-03-11T14:30:33.097Z,6.77
2019-03-11T14:32:59.902Z,6.77
2019-03-11T14:35:27.449Z,5.96
2019-03-11T14:37:54.052Z,5.43
2019-03-11T14:40:20.867Z,5.56
2019-03-11T14:42:47.662Z,5.40
2019-03-11T14:45:14.483Z,4.99
2019-03-11T14:47:41.295Z,4.91
2019-03-11T14:50:08.314Z,4.81
2019-03-11T14:52:35.014Z,4.84
2019-03-11T14:55:01.701Z,4.82
2019-03-11T14:57:28.495Z,4.57
2019-03-11T14:59:55.091Z,4.53
2019-03-11T15:02:21.881Z,4.45
2019-03-11T15:04:50.882Z,4.48
2019-03-11T15:07:17.282Z,4.46
2019-03-11T15:09:51.361Z,4.49
2019-03-11T15:12:12.449Z,4.66
2019-03-11T15:14:39.218Z,4.48
2019-03-11T15:17:05.903Z,4.43
2019-03-11T15:19:32.574Z,4.37
2019-03-11T15:21:59.393Z,4.33
2019-03-11T15:24:26.169Z,4.31
2019-03-11T15:26:52.972Z,4.29
2019-03-11T15:29:19.757Z,4.20
2019-03-11T15:31:46.488Z,4.21
2019-03-11T15:34:13.300Z,4.05
2019-03-11T15:36:39.991Z,4.08
2019-03-11T15:39:07.204Z,4.20
2019-03-11T15:41:34.041Z,4.21
2019-03-11T15:44:00.643Z,4.34
2019-03-11T15:46:27.306Z,4.36
2019-03-11T15:48:54.103Z,4.45
2019-03-11T15:51:21.453Z,4.43
2019-03-11T15:53:48.192Z,4.41
2019-03-11T15:56:14.901Z,4.34
2019-03-11T15:58:41.829Z,4.38
2019-03-11T16:01:08.621Z,4.42
2019-03-11T16:03:36.564Z,4.30
2019-03-11T16:06:03.526Z,4.32
2019-03-11T16:08:30.328Z,4.22
2019-03-11T16:10:57.117Z,4.18
2019-03-11T16:13:23.819Z,4.08
2019-03-11T16:15:50.628Z,3.94
2019-03-11T16:18:17.423Z,3.85
2019-03-11T16:20:44.204Z,3.80
2019-03-11T16:23:10.939Z,3.82
2019-03-11T16:25:37.731Z,3.82
2019-03-11T16:28:04.511Z,3.84
2019-03-11T16:30:31.202Z,3.85
2019-03-11T16:33:00.224Z,3.85
2019-03-11T16:35:27.347Z,3.91
2019-03-11T16:37:54.241Z,3.91
2019-03-11T16:40:22.183Z,3.88
2019-03-11T16:42:48.982Z,3.84
2019-03-11T16:45:16.883Z,3.75
2019-03-11T16:47:43.693Z,3.75
2019-03-11T16:50:12.382Z,3.69
2019-03-11T16:52:38.988Z,3.63
2019-03-11T16:55:07.509Z,3.59
2019-03-11T16:57:34.184Z,3.52
2019-03-11T17:00:00.992Z,3.49
2019-03-11T17:02:27.671Z,3.41
2019-03-11T17:04:54.471Z,3.44
2019-03-11T17:07:21.257Z,3.42
2019-03-11T17:09:47.954Z,3.40
2019-03-11T17:12:14.734Z,3.33
2019-03-11T17:14:41.441Z,3.33
2019-03-11T17:17:08.289Z,3.27
2019-03-11T17:19:34.905Z,3.29
2019-03-11T17:22:01.591Z,3.29
2019-03-11T17:24:28.404Z,3.33
2019-03-11T17:26:55.184Z,3.36
2019-03-11T17:29:22.002Z,3.29
2019-03-11T17:31:48.686Z,3.25
2019-03-11T17:34:15.380Z,3.16
2019-03-11T17:36:42.094Z,3.12
2019-03-11T17:39:09.369Z,3.12
2019-03-11T17:41:36.192Z,3.10
2019-03-11T17:44:03.152Z,3.09
2019-03-11T17:46:30.034Z,3.08
2019-03-11T17:48:56.824Z,3.08
2019-03-11T17:51:23.636Z,3.17
2019-03-11T17:53:50.412Z,3.19
2019-03-11T17:56:17.115Z,3.10
2019-03-11T17:58:43.927Z,3.18
2019-03-11T18:01:10.738Z,3.20
2019-03-11T18:03:37.513Z,2.55
2019-03-11T18:06:11.687Z,3.28
2019-03-11T18:08:33.006Z,3.26
2019-03-11T18:10:59.710Z,3.24
2019-03-11T18:13:26.499Z,3.33
2019-03-11T18:15:53.100Z,3.43
2019-03-11T18:18:19.879Z,3.47
2019-03-11T18:20:46.677Z,3.55
2019-03-11T18:23:13.367Z,3.58
2019-03-11T18:25:40.172Z,3.54
2019-03-11T18:28:06.944Z,3.66
2019-03-11T18:30:33.962Z,3.62
2019-03-11T18:33:00.766Z,3.66
2019-03-11T18:35:27.893Z,3.65
2019-03-11T18:38:03.280Z,3.65
2019-03-11T18:40:23.242Z,3.62
2019-03-11T18:42:50.062Z,3.87
2019-03-11T18:45:16.957Z,3.88
2019-03-11T18:47:43.872Z,3.96
2019-03-11T18:50:11.039Z,3.99
2019-03-11T18:52:37.808Z,4.01
2019-03-11T18:55:04.999Z,4.11
2019-03-11T18:57:33.027Z,4.22
2019-03-11T18:59:59.722Z,4.14
2019-03-11T19:02:26.525Z,4.07
2019-03-11T19:04:53.187Z,4.18
2019-03-11T19:07:19.988Z,4.19
2019-03-11T19:09:46.625Z,4.16
2019-03-11T19:12:13.378Z,4.17
2019-03-11T19:14:40.025Z,4.17
2019-03-11T19:17:06.799Z,4.16
2019-03-11T19:19:45.371Z,4.12
2019-03-11T19:22:02.203Z,4.17
2019-03-11T19:24:29.085Z,4.22
2019-03-11T19:27:15.356Z,4.17
2019-03-11T19:29:42.136Z,4.12
2019-03-11T19:32:09.280Z,4.04
2019-03-11T19:34:35.952Z,4.02
2019-03-11T19:37:02.738Z,4.17
2019-03-11T19:39:29.440Z,4.05
2019-03-11T19:41:56.228Z,4.02
2019-03-11T19:44:22.845Z,3.93
2019-03-11T19:46:49.729Z,3.93
2019-03-11T19:49:16.483Z,3.91
2019-03-11T19:51:43.350Z,3.83
2019-03-11T19:54:10.165Z,3.81
2019-03-11T19:56:36.828Z,3.87
2019-03-11T19:59:03.667Z,3.62
2019-03-11T20:01:30.345Z,3.65
2019-03-11T20:03:57.122Z,3.61
2019-03-11T20:06:23.930Z,3.69
2019-03-11T20:08:51.215Z,3.83
2019-03-11T20:11:17.822Z,3.85
2019-03-11T20:13:44.796Z,3.70
2019-03-11T20:16:11.678Z,3.73
2019-03-11T20:18:38.365Z,3.77
2019-03-11T20:21:05.287Z,3.66
2019-03-11T20:23:32.441Z,3.88
2019-03-11T20:25:59.263Z,3.79
2019-03-11T20:28:25.984Z,3.75
2019-03-11T20:30:52.830Z,3.76
2019-03-11T20:33:20.010Z,3.86
2019-03-11T20:35:46.619Z,3.79
2019-03-11T20:38:13.347Z,3.63
2019-03-11T20:40:40.166Z,3.65
2019-03-11T20:43:07.007Z,3.59
2019-03-11T20:45:33.818Z,3.81
2019-03-11T20:48:00.568Z,3.86
2019-03-11T20:50:27.463Z,3.91
2019-03-11T20:52:54.227Z,3.94
2019-03-11T20:55:20.924Z,3.83
2019-03-11T20:57:47.891Z,3.84
2019-03-11T21:00:16.547Z,3.83
2019-03-11T21:02:43.409Z,3.88
2019-03-11T21:05:10.213Z,3.99
2019-03-11T21:07:36.859Z,3.91
2019-03-11T21:10:04.653Z,3.84
2019-03-11T21:12:31.468Z,3.71
2019-03-11T21:14:58.319Z,3.93
2019-03-11T21:17:28.268Z,4.07
2019-03-11T21:19:53.706Z,4.02
2019-03-11T21:22:20.443Z,4.00
2019-03-11T21:24:55.526Z,4.03
2019-03-11T21:27:16.019Z,3.99
2019-03-11T21:29:42.693Z,3.97
2019-03-11T21:32:09.524Z,3.97
2019-03-11T21:34:36.239Z,4.01
2019-03-11T21:37:03.086Z,4.01
2019-03-11T21:39:29.957Z,3.97
2019-03-11T21:41:56.803Z,3.89
2019-03-11T21:44:23.485Z,4.06
2019-03-11T21:46:50.159Z,4.09
2019-03-11T21:49:17.021Z,4.07
2019-03-11T21:51:43.789Z,4.06
2019-03-11T21:54:10.603Z,4.15
2019-03-11T21:56:37.280Z,4.02
2019-03-11T21:59:04.182Z,4.00
2019-03-11T22:01:30.860Z,4.00
2019-03-11T22:03:57.471Z,4.07
2019-03-11T22:06:24.275Z,4.02
2019-03-11T22:08:51.106Z,4.01
2019-03-11T22:11:17.888Z,4.07
2019-03-11T22:13:44.462Z,4.05
2019-03-11T22:16:11.256Z,4.02
2019-03-11T22:18:38.036Z,4.12
2019-03-11T22:21:04.837Z,4.11
2019-03-11T22:23:31.543Z,4.11
2019-03-11T22:25:58.115Z,4.11
2019-03-11T22:28:24.817Z,4.14
2019-03-11T22:30:51.507Z,4.15
2019-03-11T22:33:18.295Z,4.11
2019-03-11T22:35:45.083Z,4.04
2019-03-11T22:38:11.763Z,4.02
2019-03-11T22:40:38.469Z,4.10
2019-03-11T22:43:05.258Z,4.11
2019-03-11T22:45:32.092Z,4.15
2019-03-11T22:47:58.755Z,4.13
2019-03-11T22:50:25.498Z,4.10
2019-03-11T22:52:52.169Z,4.09
2019-03-11T22:55:19.121Z,4.14
2019-03-11T22:57:45.926Z,4.13
2019-03-11T23:00:24.195Z,4.15
2019-03-11T23:02:50.975Z,4.12
2019-03-11T23:05:17.765Z,4.12
2019-03-11T23:07:44.556Z,4.17
2019-03-11T23:10:11.381Z,4.21
2019-03-11T23:12:38.062Z,4.02
2019-03-11T23:15:05.210Z,3.97
2019-03-11T23:17:31.988Z,4.05
2019-03-11T23:19:58.572Z,4.04
2019-03-11T23:22:25.268Z,3.98
2019-03-11T23:24:51.857Z,3.92
2019-03-11T23:27:18.646Z,3.91
2019-03-11T23:29:45.596Z,3.92
2019-03-11T23:32:12.669Z,3.89
2019-03-11T23:34:39.447Z,3.88
2019-03-11T23:37:06.248Z,4.00
2019-03-11T23:39:32.953Z,3.99
2019-03-11T23:41:59.765Z,4.04
2019-03-11T23:44:26.462Z,4.01
2019-03-11T23:46:53.152Z,4.04
2019-03-11T23:49:19.858Z,4.01
2019-03-11T23:51:47.386Z,4.02
2019-03-11T23:54:14.186Z,4.01
2019-03-11T23:56:40.880Z,3.97
2019-03-11T23:59:07.569Z,3.94
